createdAt,value
2023-02-17T00:00:19.324Z,6.07
2023-02-17T00:02:46.155Z,6.40
2023-02-17T00:05:13.010Z,6.17
2023-02-17T00:07:39.752Z,5.90
2023-02-17T00:10:07.505Z,6.17
2023-02-17T00:12:34.235Z,5.90
2023-02-17T00:15:00.888Z,6.13
2023-02-17T00:17:27.534Z,6.10
2023-02-17T00:19:55.680Z,7.07
2023-02-17T00:22:22.340Z,6.47
2023-02-17T00:24:48.958Z,7.20
2023-02-17T00:27:15.614Z,6.20
2023-02-17T00:29:42.294Z,6.47
2023-02-17T00:32:10.432Z,6.23
2023-02-17T00:34:37.886Z,6.37
2023-02-17T00:37:05.098Z,6.17
2023-02-17T00:39:32.872Z,6.70
2023-02-17T00:41:59.522Z,6.13
2023-02-17T00:44:29.171Z,6.33
2023-02-17T00:46:55.845Z,6.70
2023-02-17T00:49:25.272Z,6.73
2023-02-17T00:51:52.781Z,6.37
2023-02-17T00:54:19.902Z,6.27
2023-02-17T00:56:46.846Z,6.13
2023-02-17T00:59:13.811Z,6.30
2023-02-17T01:01:40.660Z,6.67
2023-02-17T01:04:09.688Z,6.17
2023-02-17T01:06:38.605Z,6.57
2023-02-17T01:09:09.078Z,6.50
2023-02-17T01:11:36.341Z,5.80
2023-02-17T01:14:06.291Z,6.03
2023-02-17T01:16:36.553Z,6.30
2023-02-17T01:19:05.231Z,6.23
2023-02-17T01:21:32.776Z,6.20
2023-02-17T01:24:02.276Z,6.33
2023-02-17T01:26:31.017Z,5.50
2023-02-17T01:28:58.297Z,6.20
2023-02-17T01:31:27.126Z,5.93
2023-02-17T01:33:57.188Z,5.70
2023-02-17T01:36:24.497Z,6.37
2023-02-17T01:38:51.242Z,6.27
2023-02-17T01:41:20.477Z,5.97
2023-02-17T01:44:07.640Z,6.30
2023-02-17T01:46:39.696Z,5.87
2023-02-17T01:49:19.718Z,6.50
2023-02-17T01:51:52.334Z,6.00
2023-02-17T01:54:27.251Z,5.63
2023-02-17T01:56:57.323Z,6.20
2023-02-17T01:59:24.307Z,6.70
2023-02-17T02:01:55.316Z,6.33
2023-02-17T02:04:25.969Z,6.17
2023-02-17T02:06:52.972Z,6.63
2023-02-17T02:09:32.559Z,6.17
2023-02-17T02:12:00.198Z,7.03
2023-02-17T02:14:32.112Z,7.10
2023-02-17T02:17:12.602Z,6.23
2023-02-17T02:19:55.936Z,6.40
2023-02-17T02:22:47.237Z,7.13
2023-02-17T02:25:13.826Z,7.13
2023-02-17T02:28:05.435Z,6.57
2023-02-17T02:30:58.231Z,6.73
2023-02-17T02:33:31.019Z,6.67
2023-02-17T02:36:11.484Z,6.40
2023-02-17T02:38:57.611Z,6.97
2023-02-17T02:41:38.036Z,7.13
2023-02-17T02:44:07.606Z,7.70
2023-02-17T02:46:34.356Z,7.27
2023-02-17T02:49:02.704Z,7.27
2023-02-17T02:51:31.271Z,6.50
2023-02-17T02:54:16.508Z,6.43
2023-02-17T02:57:10.035Z,6.57
2023-02-17T02:59:43.695Z,6.70
2023-02-17T03:02:34.723Z,5.87
2023-02-17T03:05:37.069Z,6.40
2023-02-17T03:08:11.164Z,6.47
2023-02-17T03:10:46.932Z,6.50
2023-02-17T03:13:13.847Z,5.90
2023-02-17T03:15:41.206Z,6.60
2023-02-17T03:18:07.895Z,6.87
2023-02-17T03:20:43.686Z,6.43
2023-02-17T03:23:10.371Z,6.50
2023-02-17T03:25:37.047Z,6.50
2023-02-17T03:28:04.466Z,6.80
2023-02-17T03:30:31.237Z,6.60
2023-02-17T03:32:57.939Z,6.93
2023-02-17T03:35:24.515Z,7.27
2023-02-17T03:37:51.149Z,6.60
2023-02-17T03:40:17.962Z,7.10
2023-02-17T03:42:44.759Z,7.53
2023-02-17T03:45:11.417Z,8.20
2023-02-17T03:47:38.039Z,6.97
2023-02-17T03:50:05.410Z,6.93
2023-02-17T03:52:32.053Z,6.47
2023-02-17T03:54:58.686Z,6.30
2023-02-17T03:57:25.369Z,6.57
2023-02-17T03:59:52.016Z,7.27
2023-02-17T04:02:18.647Z,6.60
2023-02-17T04:04:45.305Z,7.10
2023-02-17T04:07:11.958Z,6.60
2023-02-17T04:09:38.780Z,6.40
2023-02-17T04:12:05.512Z,6.13
2023-02-17T04:14:32.286Z,6.60
2023-02-17T04:16:58.949Z,5.67
2023-02-17T04:19:25.613Z,5.30
2023-02-17T04:21:52.448Z,5.23
2023-02-17T04:24:19.100Z,5.60
2023-02-17T04:26:45.751Z,5.63
2023-02-17T04:29:12.369Z,5.03
2023-02-17T04:31:39.077Z,5.43
2023-02-17T04:34:05.687Z,5.23
2023-02-17T04:36:33.052Z,5.40
2023-02-17T04:38:59.679Z,5.27
2023-02-17T04:41:26.321Z,5.63
2023-02-17T04:43:52.986Z,5.73
2023-02-17T04:46:19.644Z,5.77
2023-02-17T04:48:46.303Z,5.50
2023-02-17T04:51:12.988Z,5.33
2023-02-17T04:53:40.218Z,5.73
2023-02-17T04:56:07.291Z,5.43
2023-02-17T04:58:34.117Z,5.13
2023-02-17T05:01:01.114Z,5.67
2023-02-17T05:03:27.829Z,6.23
2023-02-17T05:05:54.473Z,5.27
2023-02-17T05:08:21.122Z,5.47
2023-02-17T05:10:48.062Z,5.33
2023-02-17T05:13:14.702Z,5.47
2023-02-17T05:15:43.878Z,5.33
2023-02-17T05:18:11.238Z,5.20
2023-02-17T05:20:37.954Z,5.23
2023-02-17T05:23:04.675Z,5.30
2023-02-17T05:25:31.417Z,5.80
2023-02-17T05:27:58.076Z,5.00
2023-02-17T05:30:24.690Z,5.00
2023-02-17T05:32:51.316Z,4.97
2023-02-17T05:35:18.031Z,5.50
2023-02-17T05:37:44.671Z,4.93
2023-02-17T05:40:11.929Z,5.10
2023-02-17T05:42:38.620Z,5.13
2023-02-17T05:45:05.524Z,5.33
2023-02-17T05:47:32.254Z,4.93
2023-02-17T05:49:58.868Z,5.20
2023-02-17T05:52:25.522Z,4.90
2023-02-17T05:54:52.150Z,5.53
2023-02-17T05:57:18.823Z,5.47
2023-02-17T05:59:45.444Z,5.70
2023-02-17T06:02:12.073Z,5.43
2023-02-17T06:04:38.834Z,5.17
2023-02-17T06:07:05.593Z,5.43
2023-02-17T06:09:32.290Z,5.20
2023-02-17T06:11:59.069Z,6.53
2023-02-17T06:14:25.840Z,5.30
2023-02-17T06:16:53.683Z,4.60
2023-02-17T06:19:20.336Z,4.70
2023-02-17T06:21:47.083Z,4.50
2023-02-17T06:24:13.742Z,4.43
2023-02-17T06:26:40.415Z,4.43
2023-02-17T06:29:07.361Z,4.43
2023-02-17T06:31:34.272Z,5.17
2023-02-17T06:34:01.047Z,4.17
2023-02-17T06:36:27.766Z,4.73
2023-02-17T06:38:54.377Z,4.70
2023-02-17T06:41:20.992Z,4.27
2023-02-17T06:43:47.605Z,5.00
2023-02-17T06:46:14.305Z,4.13
2023-02-17T06:48:40.944Z,4.07
2023-02-17T06:51:07.580Z,4.17
2023-02-17T06:53:34.282Z,4.37
2023-02-17T06:56:00.948Z,4.03
2023-02-17T06:58:27.648Z,4.03
2023-02-17T07:00:54.374Z,4.17
2023-02-17T07:03:21.100Z,3.90
2023-02-17T07:05:47.746Z,4.13
2023-02-17T07:08:14.570Z,4.50
2023-02-17T07:10:41.459Z,4.20
2023-02-17T07:13:08.482Z,4.33
2023-02-17T07:15:35.538Z,3.90
2023-02-17T07:18:03.036Z,4.00
2023-02-17T07:20:31.914Z,4.20
2023-02-17T07:22:59.981Z,4.00
2023-02-17T07:25:26.818Z,4.07
2023-02-17T07:27:53.479Z,4.00
2023-02-17T07:30:21.150Z,3.93
2023-02-17T07:32:47.770Z,3.97
2023-02-17T07:35:14.398Z,3.80
2023-02-17T07:37:41.037Z,4.00
2023-02-17T07:40:07.984Z,4.27
2023-02-17T07:42:34.725Z,4.07
2023-02-17T07:45:05.855Z,4.13
2023-02-17T07:47:33.227Z,4.30
2023-02-17T07:49:59.880Z,4.20
2023-02-17T07:52:26.595Z,4.33
2023-02-17T07:54:53.238Z,4.20
2023-02-17T07:57:19.915Z,4.60
2023-02-17T07:59:47.424Z,4.07
2023-02-17T08:02:14.272Z,4.77
2023-02-17T08:04:40.909Z,3.67
2023-02-17T08:07:07.723Z,4.57
2023-02-17T08:09:53.190Z,4.20
2023-02-17T08:12:39.837Z,4.40
2023-02-17T08:15:10.205Z,4.50
2023-02-17T08:17:37.046Z,4.23
2023-02-17T08:20:09.054Z,4.90
2023-02-17T08:22:36.677Z,4.60
2023-02-17T08:25:06.050Z,5.07
2023-02-17T08:27:32.969Z,5.03
2023-02-17T08:29:59.712Z,5.00
2023-02-17T08:32:26.498Z,4.70
2023-02-17T08:34:56.720Z,4.70
2023-02-17T08:37:23.416Z,4.73
2023-02-17T08:39:50.085Z,4.90
2023-02-17T08:42:17.901Z,5.10
2023-02-17T08:44:44.589Z,5.07
2023-02-17T08:47:11.504Z,5.30
2023-02-17T08:49:40.867Z,5.53
2023-02-17T08:52:10.636Z,5.80
2023-02-17T08:54:38.329Z,5.77
2023-02-17T08:57:08.290Z,5.73
2023-02-17T08:59:34.935Z,5.87
2023-02-17T09:02:01.633Z,5.87
2023-02-17T09:04:31.258Z,5.47
2023-02-17T09:06:58.594Z,6.37
2023-02-17T09:09:26.948Z,6.27
2023-02-17T09:11:55.803Z,5.80
2023-02-17T09:14:24.004Z,5.97
2023-02-17T09:16:51.911Z,6.13
2023-02-17T09:19:19.215Z,6.67
2023-02-17T09:21:46.050Z,6.17
2023-02-17T09:24:12.794Z,5.97
2023-02-17T09:26:39.498Z,6.70
2023-02-17T09:29:06.292Z,6.60
2023-02-17T09:31:35.321Z,5.30
2023-02-17T09:34:02.842Z,5.27
2023-02-17T09:36:31.824Z,5.53
2023-02-17T09:38:59.012Z,5.30
2023-02-17T09:41:41.225Z,4.60
2023-02-17T09:44:17.638Z,4.70
2023-02-17T09:47:06.962Z,5.03
2023-02-17T09:49:45.430Z,5.27
2023-02-17T09:52:29.585Z,4.80
2023-02-17T09:55:08.178Z,5.03
2023-02-17T09:57:41.502Z,5.33
2023-02-17T10:00:23.570Z,4.70
2023-02-17T10:03:03.395Z,4.83
2023-02-17T10:05:40.958Z,4.80
2023-02-17T10:08:18.993Z,4.63
2023-02-17T10:11:01.830Z,4.57
2023-02-17T10:13:32.244Z,3.97
2023-02-17T10:16:07.041Z,4.40
2023-02-17T10:18:49.476Z,4.80
2023-02-17T10:21:25.590Z,4.53
2023-02-17T10:23:52.635Z,4.83
2023-02-17T10:26:22.370Z,4.43
2023-02-17T10:28:49.090Z,4.57
2023-02-17T10:31:26.264Z,4.80
2023-02-17T10:34:05.001Z,4.70
2023-02-17T10:37:01.009Z,4.43
2023-02-17T10:39:33.673Z,4.50
2023-02-17T10:42:01.643Z,4.90
2023-02-17T10:44:28.574Z,4.63
2023-02-17T10:46:55.300Z,4.77
2023-02-17T10:49:27.057Z,4.80
2023-02-17T10:51:53.691Z,4.30
2023-02-17T10:54:43.570Z,4.50
2023-02-17T10:57:13.272Z,4.20
2023-02-17T10:59:42.682Z,4.60
2023-02-17T11:02:43.303Z,4.27
2023-02-17T11:05:29.011Z,3.97
2023-02-17T11:08:00.218Z,5.53
2023-02-17T11:10:36.317Z,5.93
2023-02-17T11:13:19.276Z,6.80
2023-02-17T11:15:47.681Z,3.93
2023-02-17T11:18:28.953Z,4.47
2023-02-17T11:21:08.692Z,3.70
2023-02-17T11:23:40.364Z,3.93
2023-02-17T11:26:17.022Z,3.80
2023-02-17T11:28:43.665Z,4.20
2023-02-17T11:31:31.109Z,3.80
2023-02-17T11:33:57.883Z,3.83
2023-02-17T11:36:29.276Z,3.80
2023-02-17T11:38:57.317Z,4.13
2023-02-17T11:41:24.186Z,4.03
2023-02-17T11:43:56.998Z,3.90
2023-02-17T11:46:36.637Z,3.83
2023-02-17T11:49:41.904Z,3.50
2023-02-17T11:52:30.426Z,3.63
2023-02-17T11:55:15.362Z,3.70
2023-02-17T11:58:06.056Z,3.40
2023-02-17T12:00:45.352Z,3.50
2023-02-17T12:03:39.563Z,3.90
2023-02-17T12:06:21.229Z,3.60
2023-02-17T12:09:07.758Z,3.50
2023-02-17T12:11:43.349Z,3.87
2023-02-17T12:14:30.984Z,3.50
2023-02-17T12:17:13.299Z,3.50
2023-02-17T12:19:58.789Z,3.50
2023-02-17T12:22:42.584Z,3.57
2023-02-17T12:25:39.945Z,3.73
2023-02-17T12:28:06.502Z,3.03
2023-02-17T12:30:39.428Z,3.30
2023-02-17T12:33:12.279Z,3.20
2023-02-17T12:35:57.676Z,3.43
2023-02-17T12:38:27.767Z,3.30
2023-02-17T12:41:31.013Z,3.00
2023-02-17T12:44:07.317Z,2.93
2023-02-17T12:46:46.321Z,2.80
2023-02-17T12:49:35.825Z,3.27
2023-02-17T12:52:08.341Z,3.50
2023-02-17T12:54:41.903Z,2.70
2023-02-17T12:57:29.957Z,3.57
2023-02-17T12:59:57.608Z,2.87
2023-02-17T13:02:26.147Z,2.77
2023-02-17T13:04:55.750Z,3.00
2023-02-17T13:07:44.185Z,3.10
2023-02-17T13:10:25.825Z,2.80
2023-02-17T13:13:27.189Z,2.80
2023-02-17T13:16:12.289Z,3.23
2023-02-17T13:18:41.708Z,3.10
2023-02-17T13:21:24.956Z,2.80
2023-02-17T13:24:01.411Z,2.80
2023-02-17T13:26:30.032Z,2.67
2023-02-17T13:29:23.929Z,2.70
2023-02-17T13:31:53.559Z,2.47
2023-02-17T13:34:36.948Z,3.03
2023-02-17T13:37:23.798Z,2.40
2023-02-17T13:39:50.968Z,2.37
2023-02-17T13:42:36.070Z,2.43
2023-02-17T13:45:14.115Z,2.40
2023-02-17T13:47:42.029Z,2.60
2023-02-17T13:50:30.817Z,2.33
2023-02-17T13:52:58.201Z,2.60
2023-02-17T13:55:25.467Z,2.40
2023-02-17T13:57:57.777Z,2.50
2023-02-17T14:00:29.978Z,2.37
2023-02-17T14:03:11.757Z,2.50
2023-02-17T14:05:43.798Z,2.30
2023-02-17T14:08:19.716Z,2.67
2023-02-17T14:10:46.542Z,2.40
2023-02-17T14:13:14.109Z,2.20
2023-02-17T14:15:58.659Z,2.43
2023-02-17T14:18:38.642Z,2.20
2023-02-17T14:21:24.149Z,2.30
2023-02-17T14:23:54.608Z,2.20
2023-02-17T14:26:43.962Z,2.33
2023-02-17T14:29:13.383Z,2.70
2023-02-17T14:31:52.101Z,2.80
2023-02-17T14:34:27.966Z,2.77
2023-02-17T14:36:55.899Z,2.50
2023-02-17T14:39:22.495Z,2.50
2023-02-17T14:41:49.172Z,3.10
2023-02-17T14:44:15.892Z,3.10
2023-02-17T14:46:42.568Z,3.13
2023-02-17T14:49:09.217Z,2.97
2023-02-17T14:51:37.555Z,2.93
2023-02-17T14:54:16.279Z,3.43
2023-02-17T14:57:07.481Z,3.20
2023-02-17T14:59:34.198Z,3.10
2023-02-17T15:02:00.894Z,3.53
2023-02-17T15:04:27.627Z,3.50
2023-02-17T15:06:54.786Z,3.80
2023-02-17T15:09:30.691Z,3.50
2023-02-17T15:11:58.450Z,3.60
2023-02-17T15:14:25.151Z,3.90
2023-02-17T15:16:52.194Z,3.80
2023-02-17T15:19:18.979Z,4.17
2023-02-17T15:21:49.432Z,4.10
2023-02-17T15:24:22.965Z,4.10
2023-02-17T15:26:49.780Z,4.10
2023-02-17T15:29:21.937Z,3.70
2023-02-17T15:31:50.310Z,4.23
2023-02-17T15:34:20.276Z,4.07
2023-02-17T15:36:47.574Z,4.13
2023-02-17T15:39:18.557Z,4.43
2023-02-17T15:41:46.973Z,4.27
2023-02-17T15:44:17.264Z,4.30
2023-02-17T15:46:46.044Z,4.50
2023-02-17T15:49:13.728Z,4.20
2023-02-17T15:51:40.434Z,4.40
2023-02-17T15:54:07.125Z,4.20
2023-02-17T15:56:46.918Z,4.17
2023-02-17T15:59:22.688Z,4.13
2023-02-17T16:01:50.654Z,4.60
2023-02-17T16:04:17.927Z,4.50
2023-02-17T16:06:44.957Z,4.30
2023-02-17T16:09:11.952Z,4.33
2023-02-17T16:11:54.169Z,4.30
2023-02-17T16:14:35.634Z,4.50
2023-02-17T16:17:04.620Z,4.63
2023-02-17T16:19:31.609Z,4.70
2023-02-17T16:21:58.276Z,4.63
2023-02-17T16:24:25.169Z,4.70
2023-02-17T16:26:51.913Z,4.37
2023-02-17T16:29:21.880Z,4.70
2023-02-17T16:31:49.024Z,4.50
2023-02-17T16:34:22.946Z,5.10
2023-02-17T16:36:56.554Z,4.37
2023-02-17T16:39:23.266Z,4.63
2023-02-17T16:41:49.944Z,4.33
2023-02-17T16:44:18.773Z,4.23
2023-02-17T16:46:56.235Z,4.13
2023-02-17T16:49:32.271Z,3.90
2023-02-17T16:52:00.825Z,4.27
2023-02-17T16:54:27.731Z,4.20
2023-02-17T16:56:55.812Z,4.03
2023-02-17T16:59:24.131Z,4.20
2023-02-17T17:01:53.025Z,4.13
2023-02-17T17:04:21.389Z,3.70
2023-02-17T17:06:51.601Z,3.53
2023-02-17T17:09:21.369Z,4.33
2023-02-17T17:11:48.709Z,3.03
2023-02-17T17:14:15.838Z,3.50
2023-02-17T17:16:49.488Z,3.53
2023-02-17T17:19:16.555Z,3.60
2023-02-17T17:21:43.208Z,3.37
2023-02-17T17:24:10.019Z,3.50
2023-02-17T17:26:40.102Z,3.30
2023-02-17T17:29:08.421Z,3.17
2023-02-17T17:31:35.293Z,3.10
2023-02-17T17:34:01.990Z,3.63
2023-02-17T17:36:35.275Z,3.30
2023-02-17T17:39:06.382Z,3.63
2023-02-17T17:41:33.101Z,3.67
2023-02-17T17:43:59.868Z,3.33
2023-02-17T17:46:29.207Z,3.33
2023-02-17T17:48:58.681Z,3.30
2023-02-17T17:51:27.264Z,3.23
2023-02-17T17:53:54.308Z,3.00
2023-02-17T17:56:34.544Z,3.30
2023-02-17T17:59:03.459Z,3.50
2023-02-17T18:01:30.251Z,3.43
2023-02-17T18:03:58.044Z,3.10
2023-02-17T18:06:29.592Z,2.93
2023-02-17T18:09:00.117Z,3.37
2023-02-17T18:11:27.322Z,2.60
2023-02-17T18:13:57.966Z,3.07
2023-02-17T18:16:26.374Z,2.80
2023-02-17T18:18:54.566Z,3.03
2023-02-17T18:21:21.429Z,2.83
2023-02-17T18:23:48.498Z,3.10
2023-02-17T18:26:15.404Z,3.00
2023-02-17T18:28:42.362Z,2.90
2023-02-17T18:31:11.076Z,3.40
2023-02-17T18:33:38.285Z,3.37
2023-02-17T18:36:08.613Z,3.10
2023-02-17T18:38:35.759Z,2.93
2023-02-17T18:41:02.665Z,3.20
2023-02-17T18:43:29.317Z,3.53
2023-02-17T18:45:56.082Z,3.60
2023-02-17T18:48:22.942Z,3.30
2023-02-17T18:50:50.744Z,3.50
2023-02-17T18:53:18.135Z,3.50
2023-02-17T18:55:44.865Z,3.17
2023-02-17T18:58:12.492Z,3.50
2023-02-17T19:00:39.274Z,3.20
2023-02-17T19:03:06.146Z,3.60
2023-02-17T19:05:32.814Z,3.63
2023-02-17T19:07:59.591Z,3.20
2023-02-17T19:10:26.366Z,3.47
2023-02-17T19:12:53.112Z,3.90
2023-02-17T19:15:20.922Z,3.83
2023-02-17T19:17:48.677Z,3.57
2023-02-17T19:20:16.994Z,3.80
2023-02-17T19:22:43.754Z,3.80
2023-02-17T19:25:10.698Z,3.70
2023-02-17T19:27:40.599Z,3.87
2023-02-17T19:30:09.325Z,3.60
2023-02-17T19:32:36.240Z,3.70
2023-02-17T19:35:03.633Z,4.20
2023-02-17T19:37:30.822Z,4.07
2023-02-17T19:39:57.493Z,4.10
2023-02-17T19:42:24.195Z,4.00
2023-02-17T19:44:50.964Z,4.03
2023-02-17T19:47:17.648Z,3.97
2023-02-17T19:49:44.343Z,4.53
2023-02-17T19:52:11.160Z,3.80
2023-02-17T19:54:37.875Z,3.97
2023-02-17T19:57:04.635Z,3.90
2023-02-17T19:59:33.400Z,4.63
2023-02-17T20:02:00.207Z,4.10
2023-02-17T20:04:26.994Z,4.97
2023-02-17T20:06:54.132Z,4.07
2023-02-17T20:09:22.916Z,4.07
2023-02-17T20:11:53.079Z,4.50
2023-02-17T20:14:20.675Z,4.10
2023-02-17T20:16:48.484Z,4.40
2023-02-17T20:19:15.796Z,4.40
2023-02-17T20:21:44.764Z,4.53
2023-02-17T20:24:14.945Z,4.83
2023-02-17T20:26:46.008Z,4.20
2023-02-17T20:29:13.245Z,4.70
2023-02-17T20:31:41.573Z,4.53
2023-02-17T20:34:17.588Z,4.70
2023-02-17T20:36:44.244Z,4.30
2023-02-17T20:39:10.902Z,4.87
2023-02-17T20:41:37.560Z,4.73
2023-02-17T20:44:05.070Z,4.83
2023-02-17T20:46:31.888Z,4.50
2023-02-17T20:48:58.678Z,4.87
2023-02-17T20:51:25.366Z,4.87
2023-02-17T20:53:52.324Z,5.03
2023-02-17T20:56:22.728Z,4.43
2023-02-17T20:58:50.868Z,4.77
2023-02-17T21:01:18.413Z,5.20
2023-02-17T21:03:45.062Z,4.77
2023-02-17T21:06:22.844Z,5.27
2023-02-17T21:08:55.474Z,4.90
2023-02-17T21:11:23.031Z,4.83
2023-02-17T21:13:50.465Z,5.33
2023-02-17T21:16:22.678Z,5.90
2023-02-17T21:18:49.384Z,5.40
2023-02-17T21:21:16.412Z,5.97
2023-02-17T21:23:43.664Z,5.53
2023-02-17T21:26:11.289Z,5.60
2023-02-17T21:28:38.354Z,6.07
2023-02-17T21:31:05.269Z,6.00
2023-02-17T21:33:32.572Z,5.80
2023-02-17T21:36:05.516Z,5.97
2023-02-17T21:38:32.283Z,5.80
2023-02-17T21:41:08.108Z,5.73
2023-02-17T21:43:53.483Z,5.60
2023-02-17T21:46:21.888Z,5.90
2023-02-17T21:48:51.117Z,6.33
2023-02-17T21:51:18.794Z,6.13
2023-02-17T21:53:45.513Z,6.10
2023-02-17T21:56:12.496Z,6.50
2023-02-17T21:58:39.275Z,6.30
2023-02-17T22:01:06.909Z,6.03
2023-02-17T22:03:33.949Z,6.70
2023-02-17T22:06:00.692Z,5.93
2023-02-17T22:08:27.431Z,6.70
2023-02-17T22:10:54.133Z,6.43
2023-02-17T22:13:20.785Z,6.03
2023-02-17T22:15:56.819Z,6.07
2023-02-17T22:18:23.583Z,6.37
2023-02-17T22:20:50.310Z,6.33
2023-02-17T22:23:17.113Z,5.93
2023-02-17T22:25:43.783Z,6.37
2023-02-17T22:28:12.002Z,6.00
2023-02-17T22:30:40.087Z,5.90
2023-02-17T22:33:06.819Z,6.17
2023-02-17T22:35:33.903Z,5.60
2023-02-17T22:38:00.524Z,6.17
2023-02-17T22:40:27.249Z,6.27
2023-02-17T22:42:53.907Z,6.20
2023-02-17T22:45:20.534Z,6.13
2023-02-17T22:47:47.291Z,6.20
2023-02-17T22:50:14.151Z,5.77
2023-02-17T22:52:40.843Z,5.53
2023-02-17T22:55:07.747Z,5.60
2023-02-17T22:57:34.367Z,5.70
2023-02-17T23:00:01.076Z,6.47
2023-02-17T23:02:27.705Z,6.33
2023-02-17T23:04:54.400Z,6.10
2023-02-17T23:07:22.265Z,6.13
2023-02-17T23:09:48.903Z,6.00
2023-02-17T23:12:15.600Z,5.60
2023-02-17T23:14:42.255Z,6.03
2023-02-17T23:17:12.094Z,5.63
2023-02-17T23:19:40.337Z,5.47
2023-02-17T23:22:16.009Z,5.97
2023-02-17T23:24:47.352Z,5.50
2023-02-17T23:27:14.600Z,5.43
2023-02-17T23:29:41.877Z,6.20
2023-02-17T23:32:08.904Z,6.33
2023-02-17T23:34:35.801Z,5.90
2023-02-17T23:37:02.579Z,5.93
2023-02-17T23:39:29.231Z,6.60
2023-02-17T23:41:55.929Z,6.57
2023-02-17T23:44:22.583Z,6.33
2023-02-17T23:46:49.332Z,6.13
2023-02-17T23:49:17.504Z,6.50
2023-02-17T23:51:46.655Z,6.27
2023-02-17T23:54:13.903Z,5.53
2023-02-17T23:56:40.575Z,6.50
2023-02-17T23:59:07.327Z,6.30
